createdAt,value
2022-12-04T00:00:35.326Z,-2.4
2022-12-04T00:01:35.308Z,-2.4
2022-12-04T00:02:35.386Z,-2.4
2022-12-04T00:03:35.305Z,-2.4
2022-12-04T00:04:35.483Z,-2.5
2022-12-04T00:05:35.335Z,-2.4
2022-12-04T00:06:35.349Z,-2.4
2022-12-04T00:07:35.421Z,-2.4
2022-12-04T00:08:35.336Z,-2.4
2022-12-04T00:09:35.319Z,-2.5
2022-12-04T00:10:35.314Z,-2.5
2022-12-04T00:11:35.301Z,-2.5
2022-12-04T00:12:35.321Z,-2.4
2022-12-04T00:13:35.314Z,-2.4
2022-12-04T00:14:49.035Z,-2.4
2022-12-04T00:15:35.327Z,-2.5
2022-12-04T00:16:35.524Z,-2.3
2022-12-04T00:17:35.336Z,-2.3
2022-12-04T00:18:35.313Z,-2.3
2022-12-04T00:19:35.333Z,-2.3
2022-12-04T00:20:35.348Z,-2.3
2022-12-04T00:21:35.310Z,-2.3
2022-12-04T00:22:35.319Z,-2.4
2022-12-04T00:23:35.318Z,-2.5
2022-12-04T00:24:35.322Z,-2.4
2022-12-04T00:25:40.807Z,-2.3
2022-12-04T00:26:35.306Z,-2.3
2022-12-04T00:27:35.294Z,-2.3
2022-12-04T00:28:35.317Z,-2.4
2022-12-04T00:29:35.312Z,-2.3
2022-12-04T00:30:35.303Z,-2.3
2022-12-04T00:31:35.383Z,-2.3
2022-12-04T00:32:35.322Z,-2.3
2022-12-04T00:33:35.324Z,-2.3
2022-12-04T00:34:35.308Z,-2.5
2022-12-04T00:35:35.303Z,-2.4
2022-12-04T00:36:35.330Z,-2.5
2022-12-04T00:37:35.318Z,-2.4
2022-12-04T00:38:35.326Z,-2.5
2022-12-04T00:39:35.363Z,-2.5
2022-12-04T00:40:35.312Z,-2.5
2022-12-04T00:41:35.306Z,-2.5
2022-12-04T00:42:35.338Z,-2.5
2022-12-04T00:43:35.312Z,-2.5
2022-12-04T00:44:35.349Z,-2.5
2022-12-04T00:45:35.499Z,-2.5
2022-12-04T00:46:35.361Z,-2.6
2022-12-04T00:47:35.333Z,-2.6
2022-12-04T00:48:35.315Z,-2.5
2022-12-04T00:49:35.305Z,-2.6
2022-12-04T00:50:35.309Z,-2.5
2022-12-04T00:51:35.337Z,-2.4
2022-12-04T00:52:35.300Z,-2.4
2022-12-04T00:53:35.412Z,-2.5
2022-12-04T00:54:35.307Z,-2.5
2022-12-04T00:55:35.318Z,-2.6
2022-12-04T00:56:35.329Z,-2.6
2022-12-04T00:57:35.295Z,-2.6
2022-12-04T00:58:35.744Z,-2.6
2022-12-04T00:59:35.337Z,-2.7
2022-12-04T01:00:35.517Z,-2.6
2022-12-04T01:01:35.397Z,-2.6
2022-12-04T01:02:35.347Z,-2.5
2022-12-04T01:03:35.394Z,-2.5
2022-12-04T01:04:35.354Z,-2.6
2022-12-04T01:05:35.303Z,-2.7
2022-12-04T01:06:35.303Z,-2.6
2022-12-04T01:07:35.339Z,-2.7
2022-12-04T01:08:35.346Z,-2.6
2022-12-04T01:09:35.300Z,-2.5
2022-12-04T01:10:35.322Z,-2.6
2022-12-04T01:11:35.319Z,-2.7
2022-12-04T01:12:35.304Z,-2.6
2022-12-04T01:13:35.291Z,-2.6
2022-12-04T01:14:35.310Z,-2.5
2022-12-04T01:15:35.309Z,-2.5
2022-12-04T01:16:35.497Z,-2.5
2022-12-04T01:17:35.296Z,-2.5
2022-12-04T01:18:35.321Z,-2.6
2022-12-04T01:19:35.328Z,-2.7
2022-12-04T01:21:35.293Z,-2.6
2022-12-04T01:22:35.299Z,-2.6
2022-12-04T01:23:35.332Z,-2.6
2022-12-04T01:24:35.308Z,-2.8
2022-12-04T01:25:35.319Z,-2.8
2022-12-04T01:26:35.323Z,-2.8
2022-12-04T01:27:35.338Z,-2.9
2022-12-04T01:28:35.417Z,-2.8
2022-12-04T01:29:35.306Z,-2.9
2022-12-04T01:30:35.294Z,-3
2022-12-04T01:31:35.373Z,-2.9
2022-12-04T01:32:35.299Z,-2.9
2022-12-04T01:33:35.302Z,-2.9
2022-12-04T01:34:35.309Z,-3.1
2022-12-04T01:35:35.350Z,-3
2022-12-04T01:36:35.330Z,-3
2022-12-04T01:37:35.310Z,-3.1
2022-12-04T01:38:35.339Z,-3.2
2022-12-04T01:39:35.306Z,-3.2
2022-12-04T01:40:35.296Z,-3.2
2022-12-04T01:41:35.293Z,-3.2
2022-12-04T01:42:35.296Z,-3.2
2022-12-04T01:43:35.320Z,-3.2
2022-12-04T01:44:35.332Z,-3.2
2022-12-04T01:45:35.358Z,-3.2
2022-12-04T01:46:35.316Z,-3.3
2022-12-04T01:47:35.317Z,-3.3
2022-12-04T01:48:35.322Z,-3.1
2022-12-04T01:49:35.307Z,-3.2
2022-12-04T01:50:35.299Z,-3.1
2022-12-04T01:51:35.309Z,-3.3
2022-12-04T01:52:35.293Z,-3.1
2022-12-04T01:53:35.319Z,-3.3
2022-12-04T01:54:35.290Z,-3.2
2022-12-04T01:55:35.300Z,-3.2
2022-12-04T01:56:35.287Z,-3.2
2022-12-04T01:57:35.285Z,-3.2
2022-12-04T01:58:35.285Z,-3.1
2022-12-04T01:59:35.297Z,-3.1
2022-12-04T02:00:35.282Z,-3.2
2022-12-04T02:01:35.354Z,-3.1
2022-12-04T02:02:35.380Z,-3.1
2022-12-04T02:03:35.379Z,-3.2
2022-12-04T02:04:35.287Z,-3.2
2022-12-04T02:05:35.296Z,-3.2
2022-12-04T02:06:35.297Z,-3.2
2022-12-04T02:07:35.377Z,-3.1
2022-12-04T02:08:35.328Z,-3.1
2022-12-04T02:09:35.286Z,-3.1
2022-12-04T02:10:35.284Z,-3.1
2022-12-04T02:12:35.292Z,-3.1
2022-12-04T02:13:35.310Z,-3.2
2022-12-04T02:14:35.274Z,-3.3
2022-12-04T02:15:35.285Z,-3.3
2022-12-04T02:16:35.421Z,-3.2
2022-12-04T02:17:35.310Z,-3.2
2022-12-04T02:18:35.334Z,-3.2
2022-12-04T02:19:35.293Z,-3.1
2022-12-04T02:20:35.295Z,-3.1
2022-12-04T02:21:35.293Z,-3
2022-12-04T02:22:35.286Z,-3.2
2022-12-04T02:23:35.304Z,-3.2
2022-12-04T02:24:35.341Z,-3.3
2022-12-04T02:25:35.284Z,-3.3
2022-12-04T02:26:35.317Z,-3.1
2022-12-04T02:27:35.279Z,-3.1
2022-12-04T02:28:35.282Z,-3.1
2022-12-04T02:29:35.286Z,-3.1
2022-12-04T02:30:35.370Z,-3.1
2022-12-04T02:31:35.298Z,-3
2022-12-04T02:32:35.287Z,-3.1
2022-12-04T02:33:35.282Z,-3.1
2022-12-04T02:34:35.300Z,-3.1
2022-12-04T02:35:35.318Z,-3.1
2022-12-04T02:36:35.298Z,-3.2
2022-12-04T02:37:35.285Z,-3.2
2022-12-04T02:38:35.296Z,-3.2
2022-12-04T02:39:35.277Z,-3.2
2022-12-04T02:40:35.364Z,-3.2
2022-12-04T02:41:35.300Z,-3.2
2022-12-04T02:42:35.303Z,-3.1
2022-12-04T02:43:35.276Z,-3.1
2022-12-04T02:44:35.311Z,-3.1
2022-12-04T02:45:35.333Z,-3.2
2022-12-04T02:46:35.281Z,-3.2
2022-12-04T02:47:35.346Z,-3.2
2022-12-04T02:48:35.301Z,-3.1
2022-12-04T02:49:35.311Z,-3.1
2022-12-04T02:50:35.285Z,-3.1
2022-12-04T02:51:35.305Z,-3.1
2022-12-04T02:52:35.301Z,-3.3
2022-12-04T02:53:35.286Z,-3.2
2022-12-04T02:54:35.270Z,-3.2
2022-12-04T02:55:35.282Z,-3.2
2022-12-04T02:56:35.290Z,-3.1
2022-12-04T02:57:35.294Z,-3.2
2022-12-04T02:58:35.306Z,-3.2
2022-12-04T02:59:35.305Z,-3.1
2022-12-04T03:01:35.422Z,-3.1
2022-12-04T03:02:35.384Z,-3.1
2022-12-04T03:03:35.305Z,-3.1
2022-12-04T03:04:35.281Z,-3.2
2022-12-04T03:05:35.276Z,-3.2
2022-12-04T03:06:35.273Z,-3.3
2022-12-04T03:07:35.349Z,-3.3
2022-12-04T03:08:35.287Z,-3.3
2022-12-04T03:09:35.276Z,-3.3
2022-12-04T03:10:35.286Z,-3.3
2022-12-04T03:11:35.278Z,-3.3
2022-12-04T03:12:35.284Z,-3.4
2022-12-04T03:13:35.285Z,-3.4
2022-12-04T03:14:35.288Z,-3.4
2022-12-04T03:15:35.274Z,-3.3
2022-12-04T03:16:35.385Z,-3.4
2022-12-04T03:17:35.284Z,-3.3
2022-12-04T03:18:35.272Z,-3.2
2022-12-04T03:19:35.269Z,-3.3
2022-12-04T03:20:35.305Z,-3.1
2022-12-04T03:21:35.285Z,-3
2022-12-04T03:22:35.273Z,-3.1
2022-12-04T03:23:35.289Z,-3.3
2022-12-04T03:24:35.278Z,-3.3
2022-12-04T03:25:35.269Z,-3.4
2022-12-04T03:26:35.285Z,-3.4
2022-12-04T03:27:35.272Z,-3.4
2022-12-04T03:28:35.282Z,-3.3
2022-12-04T03:29:35.343Z,-3.3
2022-12-04T03:30:35.319Z,-3.3
2022-12-04T03:31:35.271Z,-3.3
2022-12-04T03:32:35.277Z,-3.4
2022-12-04T03:33:35.295Z,-3.4
2022-12-04T03:34:35.271Z,-3.4
2022-12-04T03:35:35.280Z,-3.4
2022-12-04T03:36:35.280Z,-3.4
2022-12-04T03:37:35.268Z,-3.4
2022-12-04T03:38:35.279Z,-3.3
2022-12-04T03:39:35.284Z,-3.4
2022-12-04T03:40:35.272Z,-3.3
2022-12-04T03:41:35.274Z,-3.4
2022-12-04T03:42:35.273Z,-3.4
2022-12-04T03:43:35.280Z,-3.3
2022-12-04T03:44:35.276Z,-3.3
2022-12-04T03:45:35.309Z,-3.4
2022-12-04T03:46:35.357Z,-3.3
2022-12-04T03:47:35.281Z,-3.2
2022-12-04T03:48:35.273Z,-3.3
2022-12-04T03:49:35.291Z,-3.4
2022-12-04T03:50:35.574Z,-3.4
2022-12-04T03:51:35.289Z,-3.4
2022-12-04T03:52:35.277Z,-3.2
2022-12-04T03:53:35.289Z,-3.2
2022-12-04T03:54:35.280Z,-3.3
2022-12-04T03:55:35.281Z,-3.2
2022-12-04T03:56:35.276Z,-3.5
2022-12-04T03:57:35.301Z,-3.4
2022-12-04T03:58:35.286Z,-3.3
2022-12-04T03:59:35.265Z,-3.4
2022-12-04T04:00:35.285Z,-3.3
2022-12-04T04:01:35.373Z,-3.4
2022-12-04T04:02:35.345Z,-3.4
2022-12-04T04:03:35.284Z,-3.4
2022-12-04T04:04:35.276Z,-3.4
2022-12-04T04:05:35.264Z,-3.4
2022-12-04T04:06:35.264Z,-3.4
2022-12-04T04:07:36.069Z,-3.4
2022-12-04T04:08:35.267Z,-3.3
2022-12-04T04:09:35.276Z,-3.3
2022-12-04T04:10:35.283Z,-3.4
2022-12-04T04:11:35.285Z,-3.3
2022-12-04T04:12:35.281Z,-3.2
2022-12-04T04:13:35.325Z,-3.2
2022-12-04T04:14:35.260Z,-3.2
2022-12-04T04:15:35.312Z,-3.3
2022-12-04T04:16:35.283Z,-3.3
2022-12-04T04:17:38.743Z,-3.2
2022-12-04T04:18:35.292Z,-3.2
2022-12-04T04:19:35.256Z,-3.1
2022-12-04T04:20:35.291Z,-3.2
2022-12-04T04:21:35.266Z,-3.2
2022-12-04T04:22:35.296Z,-3.2
2022-12-04T04:23:35.267Z,-3.2
2022-12-04T04:24:35.275Z,-3.3
2022-12-04T04:25:35.266Z,-3.3
2022-12-04T04:26:35.256Z,-3.2
2022-12-04T04:27:35.272Z,-3.2
2022-12-04T04:28:35.278Z,-3.2
2022-12-04T04:29:35.267Z,-3.1
2022-12-04T04:30:35.265Z,-3.2
2022-12-04T04:31:35.398Z,-3.2
2022-12-04T04:32:35.350Z,-3.3
2022-12-04T04:33:35.283Z,-3.3
2022-12-04T04:34:35.267Z,-3.4
2022-12-04T04:35:35.277Z,-3.5
2022-12-04T04:36:35.274Z,-3.4
2022-12-04T04:37:35.259Z,-3.4
2022-12-04T04:38:35.292Z,-3.5
2022-12-04T04:39:35.295Z,-3.4
2022-12-04T04:40:35.269Z,-3.3
2022-12-04T04:41:35.267Z,-3.4
2022-12-04T04:42:35.278Z,-3.4
2022-12-04T04:43:35.283Z,-3.4
2022-12-04T04:44:35.264Z,-3.4
2022-12-04T04:45:35.269Z,-3.4
2022-12-04T04:46:35.434Z,-3.4
2022-12-04T04:47:35.271Z,-3.4
2022-12-04T04:48:35.281Z,-3.4
2022-12-04T04:49:35.406Z,-3.4
2022-12-04T04:50:35.283Z,-3.4
2022-12-04T04:51:35.262Z,-3.4
2022-12-04T04:52:35.262Z,-3.4
2022-12-04T04:53:35.347Z,-3.4
2022-12-04T04:54:35.269Z,-3.4
2022-12-04T04:55:35.275Z,-3.4
2022-12-04T04:56:35.299Z,-3.2
2022-12-04T04:57:35.283Z,-3.4
2022-12-04T04:58:35.280Z,-3.4
2022-12-04T04:59:35.265Z,-3.4
2022-12-04T05:00:35.269Z,-3.3
2022-12-04T05:01:35.328Z,-3.3
2022-12-04T05:02:35.305Z,-3.3
2022-12-04T05:03:35.274Z,-3.4
2022-12-04T05:04:35.256Z,-3.4
2022-12-04T05:05:35.263Z,-3.4
2022-12-04T05:06:35.266Z,-3.2
2022-12-04T05:07:35.308Z,-3.3
2022-12-04T05:08:35.275Z,-3.4
2022-12-04T05:09:39.750Z,-3.3
2022-12-04T05:10:35.248Z,-3.4
2022-12-04T05:11:35.265Z,-3.4
2022-12-04T05:12:35.271Z,-3.5
2022-12-04T05:13:35.257Z,-3.6
2022-12-04T05:14:35.353Z,-3.5
2022-12-04T05:15:35.268Z,-3.5
2022-12-04T05:16:35.331Z,-3.6
2022-12-04T05:17:35.258Z,-3.6
2022-12-04T05:18:35.266Z,-3.6
2022-12-04T05:19:35.261Z,-3.5
2022-12-04T05:20:35.266Z,-3.5
2022-12-04T05:21:35.337Z,-3.5
2022-12-04T05:22:35.261Z,-3.5
2022-12-04T05:23:35.278Z,-3.5
2022-12-04T05:24:41.252Z,-3.5
2022-12-04T05:25:35.249Z,-3.4
2022-12-04T05:26:35.251Z,-3.4
2022-12-04T05:27:35.262Z,-3.4
2022-12-04T05:28:35.257Z,-3.6
2022-12-04T05:29:36.102Z,-3.5
2022-12-04T05:30:35.271Z,-3.6
2022-12-04T05:31:35.322Z,-3.6
2022-12-04T05:32:35.254Z,-3.6
2022-12-04T05:33:35.277Z,-3.6
2022-12-04T05:34:35.271Z,-3.6
2022-12-04T05:35:35.313Z,-3.6
2022-12-04T05:36:35.268Z,-3.7
2022-12-04T05:37:35.261Z,-3.6
2022-12-04T05:38:35.283Z,-3.6
2022-12-04T05:39:35.276Z,-3.7
2022-12-04T05:40:35.297Z,-3.5
2022-12-04T05:41:35.262Z,-3.6
2022-12-04T05:42:35.255Z,-3.6
2022-12-04T05:43:35.276Z,-3.7
2022-12-04T05:44:35.263Z,-3.5
2022-12-04T05:45:35.256Z,-3.6
2022-12-04T05:46:35.376Z,-3.5
2022-12-04T05:47:35.271Z,-3.6
2022-12-04T05:48:35.272Z,-3.6
2022-12-04T05:49:35.276Z,-3.6
2022-12-04T05:50:35.250Z,-3.6
2022-12-04T05:51:35.300Z,-3.6
2022-12-04T05:52:35.253Z,-3.6
2022-12-04T05:53:35.278Z,-3.7
2022-12-04T05:54:35.268Z,-3.7
2022-12-04T05:55:35.270Z,-3.8
2022-12-04T05:56:35.316Z,-3.6
2022-12-04T05:57:35.265Z,-3.7
2022-12-04T05:58:35.282Z,-3.6
2022-12-04T05:59:35.250Z,-3.6
2022-12-04T06:00:35.256Z,-3.8
2022-12-04T06:01:35.367Z,-3.8
2022-12-04T06:02:35.404Z,-3.8
2022-12-04T06:03:35.424Z,-3.8
2022-12-04T06:04:35.247Z,-3.7
2022-12-04T06:05:35.253Z,-3.8
2022-12-04T06:06:35.249Z,-3.8
2022-12-04T06:07:35.319Z,-3.8
2022-12-04T06:08:35.270Z,-3.7
2022-12-04T06:09:35.257Z,-3.8
2022-12-04T06:10:35.267Z,-3.8
2022-12-04T06:11:35.275Z,-3.8
2022-12-04T06:12:35.244Z,-3.7
2022-12-04T06:13:35.272Z,-3.7
2022-12-04T06:14:39.553Z,-3.6
2022-12-04T06:15:35.240Z,-3.7
2022-12-04T06:16:35.336Z,-3.6
2022-12-04T06:17:35.313Z,-3.6
2022-12-04T06:18:35.257Z,-3.7
2022-12-04T06:19:35.243Z,-3.7
2022-12-04T06:20:35.389Z,-3.7
2022-12-04T06:21:35.250Z,-3.7
2022-12-04T06:22:35.250Z,-3.7
2022-12-04T06:23:35.264Z,-3.7
2022-12-04T06:24:35.285Z,-3.7
2022-12-04T06:25:35.240Z,-3.8
2022-12-04T06:26:35.249Z,-3.7
2022-12-04T06:27:35.273Z,-3.7
2022-12-04T06:28:35.265Z,-3.8
2022-12-04T06:29:35.242Z,-3.7
2022-12-04T06:30:35.264Z,-3.7
2022-12-04T06:31:35.344Z,-3.7
2022-12-04T06:32:35.237Z,-3.9
2022-12-04T06:33:35.273Z,-3.9
2022-12-04T06:34:35.254Z,-3.9
2022-12-04T06:35:35.245Z,-3.9
2022-12-04T06:36:35.238Z,-3.8
2022-12-04T06:37:35.231Z,-3.9
2022-12-04T06:38:35.273Z,-3.8
2022-12-04T06:39:35.256Z,-3.8
2022-12-04T06:40:35.241Z,-3.8
2022-12-04T06:41:35.247Z,-3.8
2022-12-04T06:42:35.280Z,-3.7
2022-12-04T06:43:35.269Z,-3.7
2022-12-04T06:44:35.246Z,-3.8
2022-12-04T06:45:35.319Z,-3.7
2022-12-04T06:46:35.253Z,-3.7
2022-12-04T06:47:35.242Z,-3.6
2022-12-04T06:48:35.272Z,-3.7
2022-12-04T06:49:35.247Z,-3.5
2022-12-04T06:50:35.247Z,-3.4
2022-12-04T06:51:35.254Z,-3.5
2022-12-04T06:52:35.244Z,-3.6
2022-12-04T06:53:35.252Z,-3.6
2022-12-04T06:54:35.262Z,-3.6
2022-12-04T06:55:35.255Z,-3.6
2022-12-04T06:56:35.245Z,-3.5
2022-12-04T06:57:35.246Z,-3.5
2022-12-04T06:58:35.277Z,-3.6
2022-12-04T06:59:35.318Z,-3.5
2022-12-04T07:00:35.638Z,-3.5
2022-12-04T07:01:35.442Z,-3.5
2022-12-04T07:02:35.340Z,-3.5
2022-12-04T07:03:35.267Z,-3.6
2022-12-04T07:04:35.262Z,-3.5
2022-12-04T07:05:35.251Z,-3.6
2022-12-04T07:06:35.274Z,-3.7
2022-12-04T07:07:35.283Z,-3.8
2022-12-04T07:08:35.247Z,-3.6
2022-12-04T07:09:35.263Z,-3.6
2022-12-04T07:10:35.234Z,-3.7
2022-12-04T07:11:35.244Z,-3.8
2022-12-04T07:12:35.240Z,-3.7
2022-12-04T07:13:35.352Z,-3.8
2022-12-04T07:14:35.250Z,-3.7
2022-12-04T07:15:35.265Z,-3.7
2022-12-04T07:16:40.446Z,-3.7
2022-12-04T07:17:35.244Z,-3.7
2022-12-04T07:18:35.253Z,-3.6
2022-12-04T07:19:35.233Z,-3.7
2022-12-04T07:20:35.290Z,-3.7
2022-12-04T07:21:35.246Z,-3.7
2022-12-04T07:22:35.241Z,-3.6
2022-12-04T07:23:35.239Z,-3.6
2022-12-04T07:24:35.257Z,-3.7
2022-12-04T07:25:35.254Z,-3.8
2022-12-04T07:26:35.242Z,-3.7
2022-12-04T07:27:35.295Z,-3.7
2022-12-04T07:28:35.261Z,-3.7
2022-12-04T07:29:35.239Z,-3.7
2022-12-04T07:30:35.253Z,-3.7
2022-12-04T07:31:35.342Z,-3.7
2022-12-04T07:32:35.247Z,-3.8
2022-12-04T07:33:35.247Z,-3.7
2022-12-04T07:34:35.338Z,-3.7
2022-12-04T07:35:35.239Z,-3.7
2022-12-04T07:36:35.248Z,-3.7
2022-12-04T07:37:35.248Z,-3.8
2022-12-04T07:38:35.255Z,-3.7
2022-12-04T07:39:35.249Z,-3.7
2022-12-04T07:40:35.246Z,-3.7
2022-12-04T07:41:35.249Z,-3.7
2022-12-04T07:42:35.231Z,-3.7
2022-12-04T07:43:35.320Z,-3.7
2022-12-04T07:44:35.275Z,-3.7
2022-12-04T07:45:35.314Z,-3.7
2022-12-04T07:46:35.330Z,-3.7
2022-12-04T07:47:35.240Z,-3.7
2022-12-04T07:48:35.280Z,-3.7
2022-12-04T07:50:35.298Z,-3.8
2022-12-04T07:51:35.253Z,-3.8
2022-12-04T07:52:35.225Z,-3.8
2022-12-04T07:53:35.247Z,-3.7
2022-12-04T07:54:35.263Z,-3.6
2022-12-04T07:55:35.239Z,-3.7
2022-12-04T07:56:35.222Z,-3.6
2022-12-04T07:57:35.223Z,-3.6
2022-12-04T07:58:35.245Z,-3.5
2022-12-04T07:59:35.276Z,-3.6
2022-12-04T08:00:35.239Z,-3.5
2022-12-04T08:01:35.333Z,-3.4
2022-12-04T08:02:35.233Z,-3.4
2022-12-04T08:03:35.277Z,-3.4
2022-12-04T08:04:35.409Z,-3.3
2022-12-04T08:05:35.256Z,-3.3
2022-12-04T08:06:35.220Z,-3.4
2022-12-04T08:07:35.286Z,-3.4
2022-12-04T08:08:35.263Z,-3.4
2022-12-04T08:09:35.258Z,-3.3
2022-12-04T08:10:35.231Z,-3.2
2022-12-04T08:11:35.234Z,-3.4
2022-12-04T08:12:35.245Z,-3.4
2022-12-04T08:13:35.244Z,-3.4
2022-12-04T08:14:35.257Z,-3.3
2022-12-04T08:15:35.274Z,-3.4
2022-12-04T08:16:35.291Z,-3.4
2022-12-04T08:17:35.223Z,-3.3
2022-12-04T08:18:35.234Z,-3.3
2022-12-04T08:19:35.246Z,-3.4
2022-12-04T08:20:35.226Z,-3.4
2022-12-04T08:21:35.226Z,-3.5
2022-12-04T08:22:35.225Z,-3.5
2022-12-04T08:23:35.289Z,-3.4
2022-12-04T08:24:35.235Z,-3.5
2022-12-04T08:25:35.230Z,-3.5
2022-12-04T08:26:35.234Z,-3.4
2022-12-04T08:27:35.233Z,-3.3
2022-12-04T08:28:35.252Z,-3.4
2022-12-04T08:29:35.234Z,-3.3
2022-12-04T08:30:35.403Z,-3.2
2022-12-04T08:31:35.373Z,-3.2
2022-12-04T08:32:35.298Z,-3.2
2022-12-04T08:33:35.244Z,-3.4
2022-12-04T08:34:35.237Z,-3.3
2022-12-04T08:35:35.211Z,-3.3
2022-12-04T08:36:35.247Z,-3.2
2022-12-04T08:37:35.228Z,-3.2
2022-12-04T08:38:35.248Z,-3.2
2022-12-04T08:39:35.307Z,-3.1
2022-12-04T08:40:35.224Z,-3.1
2022-12-04T08:41:35.250Z,-3.2
2022-12-04T08:42:35.463Z,-3.3
2022-12-04T08:43:35.245Z,-3.3
2022-12-04T08:44:35.221Z,-3.2
2022-12-04T08:45:35.224Z,-3.2
2022-12-04T08:46:35.422Z,-3.3
2022-12-04T08:47:35.234Z,-3.1
2022-12-04T08:48:35.236Z,-3.1
2022-12-04T08:49:35.294Z,-3.2
2022-12-04T08:50:35.227Z,-3.3
2022-12-04T08:51:35.215Z,-3.3
2022-12-04T08:52:35.227Z,-3.2
2022-12-04T08:53:35.376Z,-3.3
2022-12-04T08:54:36.366Z,-3.2
2022-12-04T08:55:35.230Z,-3.1
2022-12-04T08:56:35.217Z,-3.2
2022-12-04T08:57:35.222Z,-3.2
2022-12-04T08:58:35.227Z,-3.2
2022-12-04T08:59:35.230Z,-3.3
2022-12-04T09:00:35.302Z,-3.2
2022-12-04T09:01:35.330Z,-3.2
2022-12-04T09:02:35.218Z,-3.2
2022-12-04T09:03:35.241Z,-3.1
2022-12-04T09:04:35.272Z,-3.2
2022-12-04T09:05:35.278Z,-3.1
2022-12-04T09:06:35.236Z,-3.1
2022-12-04T09:07:35.305Z,-3.1
2022-12-04T09:08:35.248Z,-3.1
2022-12-04T09:09:35.241Z,-3.2
2022-12-04T09:10:35.226Z,-3.2
2022-12-04T09:11:35.216Z,-3.1
2022-12-04T09:12:35.219Z,-3.1
2022-12-04T09:13:35.235Z,-3.1
2022-12-04T09:14:35.211Z,-3
2022-12-04T09:15:35.268Z,-3.1
2022-12-04T09:16:35.275Z,-3.1
2022-12-04T09:17:35.254Z,-3
2022-12-04T09:18:35.227Z,-3.1
2022-12-04T09:19:35.228Z,-3
2022-12-04T09:20:35.226Z,-3
2022-12-04T09:21:35.238Z,-3.1
2022-12-04T09:22:57.716Z,-3.2
2022-12-04T09:23:35.230Z,-3.1
2022-12-04T09:24:35.213Z,-3
2022-12-04T09:25:35.204Z,-3
2022-12-04T09:26:35.246Z,-3
2022-12-04T09:27:35.227Z,-3
2022-12-04T09:28:35.228Z,-2.8
2022-12-04T09:29:35.215Z,-3
2022-12-04T09:30:35.210Z,-2.9
2022-12-04T09:31:35.295Z,-3.1
2022-12-04T09:32:35.220Z,-3
2022-12-04T09:33:35.233Z,-2.9
2022-12-04T09:34:35.235Z,-2.8
2022-12-04T09:35:35.219Z,-3
2022-12-04T09:36:35.221Z,-3.1
2022-12-04T09:37:35.223Z,-3.1
2022-12-04T09:38:35.238Z,-3
2022-12-04T09:39:35.221Z,-3
2022-12-04T09:40:37.866Z,-2.9
2022-12-04T09:41:35.217Z,-3
2022-12-04T09:42:35.213Z,-3
2022-12-04T09:43:35.221Z,-3
2022-12-04T09:44:35.229Z,-3.1
2022-12-04T09:45:35.217Z,-3
2022-12-04T09:46:35.310Z,-3
2022-12-04T09:47:35.223Z,-2.9
2022-12-04T09:48:35.270Z,-2.9
2022-12-04T09:49:35.225Z,-2.9
2022-12-04T09:50:35.202Z,-2.8
2022-12-04T09:51:35.202Z,-3
2022-12-04T09:52:35.217Z,-3
2022-12-04T09:53:35.245Z,-2.9
2022-12-04T09:54:35.287Z,-3
2022-12-04T09:55:35.235Z,-2.9
2022-12-04T09:56:35.226Z,-2.9
2022-12-04T09:57:35.215Z,-2.8
2022-12-04T09:58:35.217Z,-2.8
2022-12-04T09:59:35.215Z,-2.8
2022-12-04T10:00:35.215Z,-2.7
2022-12-04T10:01:35.217Z,-2.9
2022-12-04T10:02:35.422Z,-2.9
2022-12-04T10:03:35.386Z,-2.9
2022-12-04T10:04:35.203Z,-2.9
2022-12-04T10:05:35.219Z,-2.8
2022-12-04T10:06:35.209Z,-2.8
2022-12-04T10:07:35.305Z,-2.8
2022-12-04T10:08:35.243Z,-2.8
2022-12-04T10:09:35.205Z,-2.9
2022-12-04T10:10:35.285Z,-2.8
2022-12-04T10:11:35.226Z,-2.8
2022-12-04T10:12:35.208Z,-2.7
2022-12-04T10:13:35.224Z,-2.8
2022-12-04T10:14:35.215Z,-2.9
2022-12-04T10:15:35.258Z,-2.7
2022-12-04T10:16:35.254Z,-2.7
2022-12-04T10:17:35.201Z,-2.8
2022-12-04T10:18:35.249Z,-2.7
2022-12-04T10:19:35.238Z,-2.8
2022-12-04T10:20:35.245Z,-3
2022-12-04T10:21:35.211Z,-2.8
2022-12-04T10:22:35.204Z,-2.8
2022-12-04T10:23:35.221Z,-2.9
2022-12-04T10:24:35.218Z,-2.9
2022-12-04T10:25:35.212Z,-2.9
2022-12-04T10:26:35.199Z,-2.9
2022-12-04T10:27:35.207Z,-2.8
2022-12-04T10:28:35.225Z,-2.8
2022-12-04T10:29:35.212Z,-2.8
2022-12-04T10:30:35.203Z,-2.8
2022-12-04T10:31:35.288Z,-2.8
2022-12-04T10:32:35.200Z,-2.8
2022-12-04T10:33:35.228Z,-2.8
2022-12-04T10:34:35.209Z,-2.8
2022-12-04T10:35:35.223Z,-2.7
2022-12-04T10:36:35.225Z,-2.8
2022-12-04T10:37:35.205Z,-2.8
2022-12-04T10:38:35.226Z,-2.8
2022-12-04T10:39:35.211Z,-2.7
2022-12-04T10:40:35.211Z,-2.8
2022-12-04T10:41:35.206Z,-2.8
2022-12-04T10:42:35.208Z,-2.7
2022-12-04T10:43:35.231Z,-2.7
2022-12-04T10:44:35.205Z,-2.6
2022-12-04T10:45:35.197Z,-2.6
2022-12-04T10:46:35.207Z,-2.6
2022-12-04T10:47:35.210Z,-2.6
2022-12-04T10:48:35.242Z,-2.6
2022-12-04T10:49:35.199Z,-2.7
2022-12-04T10:50:35.219Z,-2.7
2022-12-04T10:51:35.212Z,-2.7
2022-12-04T10:52:35.267Z,-2.7
2022-12-04T10:53:35.221Z,-2.7
2022-12-04T10:54:35.218Z,-2.7
2022-12-04T10:55:35.225Z,-2.7
2022-12-04T10:56:35.206Z,-2.6
2022-12-04T10:57:35.199Z,-2.7
2022-12-04T10:58:35.210Z,-2.5
2022-12-04T10:59:35.254Z,-2.6
2022-12-04T11:00:35.207Z,-2.4
2022-12-04T11:01:35.362Z,-2.5
2022-12-04T11:02:35.406Z,-2.5
2022-12-04T11:03:35.383Z,-2.6
2022-12-04T11:04:35.209Z,-2.5
2022-12-04T11:05:35.217Z,-2.6
2022-12-04T11:06:35.259Z,-2.6
2022-12-04T11:07:35.259Z,-2.6
2022-12-04T11:08:35.208Z,-2.6
2022-12-04T11:09:35.214Z,-2.6
2022-12-04T11:10:35.228Z,-2.7
2022-12-04T11:11:35.202Z,-2.6
2022-12-04T11:12:35.195Z,-2.6
2022-12-04T11:13:35.242Z,-2.6
2022-12-04T11:14:35.213Z,-2.5
2022-12-04T11:15:35.196Z,-2.5
2022-12-04T11:16:35.295Z,-2.6
2022-12-04T11:18:35.229Z,-2.6
2022-12-04T11:19:35.202Z,-2.5
2022-12-04T11:20:35.199Z,-2.6
2022-12-04T11:21:35.241Z,-2.6
2022-12-04T11:22:35.200Z,-2.7
2022-12-04T11:23:35.237Z,-2.6
2022-12-04T11:24:35.222Z,-2.5
2022-12-04T11:25:35.209Z,-2.4
2022-12-04T11:26:35.217Z,-2.5
2022-12-04T11:27:35.199Z,-2.4
2022-12-04T11:28:43.132Z,-2.4
2022-12-04T11:29:35.197Z,-2.3
2022-12-04T11:30:35.208Z,-2.3
2022-12-04T11:31:35.412Z,-2.3
2022-12-04T11:32:35.199Z,-2.4
2022-12-04T11:33:35.209Z,-2.4
2022-12-04T11:34:35.271Z,-2.3
2022-12-04T11:35:35.193Z,-2.3
2022-12-04T11:36:35.210Z,-2.2
2022-12-04T11:37:37.288Z,-2.2
2022-12-04T11:38:35.200Z,-2.3
2022-12-04T11:39:35.218Z,-2.3
2022-12-04T11:40:35.209Z,-2.4
2022-12-04T11:41:35.200Z,-2.3
2022-12-04T11:42:35.189Z,-2.3
2022-12-04T11:43:35.251Z,-2.3
2022-12-04T11:44:35.208Z,-2.3
2022-12-04T11:45:35.210Z,-2.2
2022-12-04T11:46:35.309Z,-2.2
2022-12-04T11:47:35.208Z,-2.2
2022-12-04T11:48:35.212Z,-2.1
2022-12-04T11:49:38.410Z,-2.1
2022-12-04T11:50:35.203Z,-2.1
2022-12-04T11:51:35.223Z,-2.2
2022-12-04T11:52:35.221Z,-2.3
2022-12-04T11:53:35.213Z,-2.3
2022-12-04T11:54:35.193Z,-2.3
2022-12-04T11:55:35.283Z,-2.1
2022-12-04T11:56:35.192Z,-2.2
2022-12-04T11:57:35.200Z,-2.2
2022-12-04T11:58:35.222Z,-2.2
2022-12-04T11:59:35.216Z,-2.2
2022-12-04T12:00:35.197Z,-2.2
2022-12-04T12:01:35.290Z,-2.2
2022-12-04T12:02:35.369Z,-2.2
2022-12-04T12:03:35.322Z,-2.3
2022-12-04T12:04:35.183Z,-2.3
2022-12-04T12:05:35.201Z,-2.2
2022-12-04T12:06:35.219Z,-2.2
2022-12-04T12:07:35.228Z,-2.2
2022-12-04T12:08:35.226Z,-2.2
2022-12-04T12:09:35.263Z,-2.3
2022-12-04T12:10:37.812Z,-2.3
2022-12-04T12:11:35.199Z,-2.3
2022-12-04T12:12:35.202Z,-2.3
2022-12-04T12:14:35.202Z,-2.2
2022-12-04T12:15:35.200Z,-2.2
2022-12-04T12:16:35.317Z,-2.1
2022-12-04T12:17:35.192Z,-2.3
2022-12-04T12:18:35.199Z,-2.3
2022-12-04T12:19:35.195Z,-2.2
2022-12-04T12:20:35.187Z,-2.5
2022-12-04T12:21:35.211Z,-2.3
2022-12-04T12:22:35.207Z,-2.2
2022-12-04T12:23:35.223Z,-2.3
2022-12-04T12:24:35.206Z,-2.3
2022-12-04T12:25:35.208Z,-2.2
2022-12-04T12:26:35.195Z,-2.1
2022-12-04T12:27:35.205Z,-2
2022-12-04T12:28:35.204Z,-2
2022-12-04T12:29:35.198Z,-1.9
2022-12-04T12:31:35.276Z,-2
2022-12-04T12:32:35.194Z,-2
2022-12-04T12:33:35.187Z,-2
2022-12-04T12:34:35.196Z,-2.1
2022-12-04T12:35:35.230Z,-2.1
2022-12-04T12:36:37.717Z,-2.1
2022-12-04T12:37:35.225Z,-2.1
2022-12-04T12:38:35.298Z,-2.1
2022-12-04T12:39:35.257Z,-2.1
2022-12-04T12:40:35.188Z,-2
2022-12-04T12:41:35.201Z,-2.1
2022-12-04T12:42:35.193Z,-2.1
2022-12-04T12:43:35.304Z,-2.1
2022-12-04T12:44:35.427Z,-2.1
2022-12-04T12:45:35.279Z,-2
2022-12-04T12:46:35.459Z,-2
2022-12-04T12:47:35.187Z,-2
2022-12-04T12:48:35.197Z,-2
2022-12-04T12:49:35.226Z,-2
2022-12-04T12:50:35.196Z,-2
2022-12-04T12:51:35.200Z,-2
2022-12-04T12:52:35.188Z,-1.9
2022-12-04T12:53:35.252Z,-1.8
2022-12-04T12:54:35.229Z,-1.8
2022-12-04T12:55:35.196Z,-1.8
2022-12-04T12:56:35.190Z,-1.9
2022-12-04T12:57:35.210Z,-1.7
2022-12-04T12:58:35.204Z,-2
2022-12-04T12:59:35.197Z,-2
2022-12-04T13:00:35.241Z,-2
2022-12-04T13:01:35.262Z,-2
2022-12-04T13:02:35.313Z,-2
2022-12-04T13:03:35.216Z,-2
2022-12-04T13:04:35.228Z,-1.9
2022-12-04T13:05:35.175Z,-1.9
2022-12-04T13:06:35.201Z,-1.9
2022-12-04T13:07:35.257Z,-1.9
2022-12-04T13:08:35.199Z,-1.8
2022-12-04T13:09:35.194Z,-1.8
2022-12-04T13:10:35.196Z,-2
2022-12-04T13:11:35.182Z,-2
2022-12-04T13:12:35.186Z,-1.9
2022-12-04T13:13:35.194Z,-1.9
2022-12-04T13:14:35.202Z,-1.9
2022-12-04T13:15:35.185Z,-1.9
2022-12-04T13:16:35.298Z,-1.9
2022-12-04T13:17:35.203Z,-1.9
2022-12-04T13:18:35.191Z,-1.9
2022-12-04T13:19:35.188Z,-1.8
2022-12-04T13:20:35.186Z,-1.8
2022-12-04T13:21:35.256Z,-1.8
2022-12-04T13:22:35.217Z,-1.7
2022-12-04T13:23:35.180Z,-1.9
2022-12-04T13:24:35.195Z,-1.9
2022-12-04T13:25:35.225Z,-1.9
2022-12-04T13:26:35.179Z,-1.8
2022-12-04T13:27:35.172Z,-1.8
2022-12-04T13:28:35.190Z,-1.7